Time;durP1;ratioP1;P1;durP2;ratioP2;P2;SDS_P1;SDS_P2;PMS_P1;PMS_P2;Temp;Humidity;BMP_temperature;BMP_pressure;BME280_temperature;BME280_humidity;BME280_pressure;Samples;Min_cycle;Max_cycle;Signal;HPM_P1;HPM_P2
2022/10/28 00:02:12;;;;;;;7.90;5.40;;;20.60;99.90;;;;;;5001426;28;20222;-71
2022/10/28 00:04:38;;;;;;;7.13;6.00;;;20.60;99.90;;;;;;5011902;28;20642;-71
2022/10/28 00:07:03;;;;;;;7.40;5.70;;;20.50;99.90;;;;;;5013211;28;20186;-71
2022/10/28 00:09:29;;;;;;;9.13;5.77;;;20.50;99.90;;;;;;5011865;28;20187;-72
2022/10/28 00:11:55;;;;;;;7.37;5.77;;;20.50;99.90;;;;;;5012384;28;20237;-71
2022/10/28 00:14:21;;;;;;;7.43;5.50;;;20.50;99.90;;;;;;5012980;28;20264;-71
2022/10/28 00:16:46;;;;;;;7.33;5.90;;;20.50;99.90;;;;;;5013305;28;20197;-71
2022/10/28 00:19:13;;;;;;;8.83;5.73;;;20.50;99.90;;;;;;5010853;28;20635;-72
2022/10/28 00:21:40;;;;;;;6.43;5.17;;;20.50;99.90;;;;;;5013861;28;20175;-71
2022/10/28 00:24:08;;;;;;;7.20;5.80;;;20.40;99.90;;;;;;5011303;28;20859;-71
2022/10/28 00:26:35;;;;;;;7.47;6.20;;;20.30;99.90;;;;;;4992974;28;20465;-71
2022/10/28 00:29:06;;;;;;;8.90;6.30;;;20.20;99.90;;;;;;5029637;28;20504;-71
2022/10/28 00:31:34;;;;;;;6.20;5.60;;;20.20;99.90;;;;;;5013455;28;20528;-71
2022/10/28 00:34:01;;;;;;;7.70;6.10;;;20.30;99.90;;;;;;5013664;28;20453;-71
2022/10/28 00:36:30;;;;;;;7.80;6.87;;;20.20;99.90;;;;;;5013895;28;20512;-72
2022/10/28 00:38:57;;;;;;;8.87;6.10;;;20.20;99.90;;;;;;5011477;28;20430;-72
2022/10/28 00:41:32;;;;;;;7.30;6.50;;;20.20;99.90;;;;;;5010878;28;20414;-71
2022/10/28 00:44:22;;;;;;;9.23;5.40;;;20.30;99.90;;;;;;5014139;28;20560;-71
2022/10/28 00:46:52;;;;;;;7.13;5.87;;;20.30;99.90;;;;;;4993897;28;20419;-72
2022/10/28 00:49:26;;;;;;;5.33;4.93;;;20.40;99.90;;;;;;5010952;28;20437;-72
2022/10/28 00:51:58;;;;;;;10.97;5.80;;;20.30;99.90;;;;;;5012559;28;20516;-71
2022/10/28 00:54:24;;;;;;;9.67;5.60;;;20.40;99.90;;;;;;5012953;28;20434;-71
2022/10/28 00:56:54;;;;;;;9.50;5.77;;;20.50;99.90;;;;;;5007764;28;20458;-71
2022/10/28 00:59:31;;;;;;;7.50;6.00;;;20.50;99.90;;;;;;5014256;28;20398;-71
2022/10/28 01:01:57;;;;;;;7.57;6.70;;;20.50;99.90;;;;;;5014026;28;20418;-71
2022/10/28 01:04:24;;;;;;;8.70;6.07;;;20.50;99.90;;;;;;4972338;28;20470;-71
2022/10/28 01:06:50;;;;;;;6.57;5.57;;;20.50;99.90;;;;;;5011460;28;20504;-71
2022/10/28 01:09:16;;;;;;;6.40;5.67;;;20.50;99.90;;;;;;5014043;28;20524;-71
2022/10/28 01:12:20;;;;;;;10.10;5.50;;;20.50;99.90;;;;;;5010308;28;21098;-72
2022/10/28 01:14:49;;;;;;;6.87;5.40;;;20.50;99.90;;;;;;5010765;28;20638;-72
2022/10/28 01:17:30;;;;;;;7.90;5.60;;;20.40;99.90;;;;;;5012806;28;20521;-71
2022/10/28 01:20:23;;;;;;;10.23;4.63;;;20.30;99.90;;;;;;5010189;28;20425;-71
2022/10/28 01:23:08;;;;;;;8.80;5.03;;;20.30;99.90;;;;;;4992212;28;20473;-72
2022/10/28 01:26:05;;;;;;;5.93;5.30;;;20.30;99.90;;;;;;5009691;28;20444;-72
2022/10/28 01:29:21;;;;;;;6.63;6.03;;;20.30;99.90;;;;;;5011917;28;20934;-72
2022/10/28 01:32:15;;;;;;;6.53;5.83;;;20.40;99.90;;;;;;4989213;28;20528;-71
2022/10/28 01:35:05;;;;;;;7.40;6.00;;;20.40;99.90;;;;;;5010607;28;20495;-71
2022/10/28 01:37:54;;;;;;;10.33;6.10;;;20.50;99.90;;;;;;5028206;28;20837;-72
2022/10/28 01:40:34;;;;;;;7.03;6.20;;;20.50;99.90;;;;;;5000903;28;20430;-71
2022/10/28 01:43:08;;;;;;;7.70;5.80;;;20.50;99.90;;;;;;5011410;28;20461;-72
2022/10/28 01:45:41;;;;;;;5.43;4.93;;;20.60;99.90;;;;;;5005155;28;20974;-72
2022/10/28 01:48:12;;;;;;;8.00;5.43;;;20.50;99.90;;;;;;5006468;28;20434;-71
2022/10/28 01:51:04;;;;;;;7.30;5.53;;;20.50;99.90;;;;;;5011541;28;20466;-72
2022/10/28 01:53:34;;;;;;;6.17;5.67;;;20.50;99.90;;;;;;5012476;28;20464;-72
2022/10/28 01:56:06;;;;;;;8.30;5.93;;;20.50;99.90;;;;;;5009356;28;20441;-71
2022/10/28 01:58:35;;;;;;;6.90;5.70;;;20.50;99.90;;;;;;5011419;28;20434;-72
2022/10/28 02:01:05;;;;;;;8.43;6.07;;;20.50;99.90;;;;;;5011407;28;20535;-72
2022/10/28 02:03:31;;;;;;;6.07;5.10;;;20.60;99.90;;;;;;5011152;28;20493;-71
2022/10/28 02:05:59;;;;;;;8.10;6.07;;;20.70;99.90;;;;;;5025517;28;20952;-71
2022/10/28 02:08:35;;;;;;;9.20;5.30;;;20.70;99.90;;;;;;5011850;28;20492;-71
2022/10/28 02:11:13;;;;;;;7.93;5.20;;;20.70;99.90;;;;;;5011921;28;20426;-72
2022/10/28 02:14:06;;;;;;;7.93;5.43;;;20.70;99.90;;;;;;5010827;28;22185;-71
2022/10/28 02:16:49;;;;;;;5.57;5.07;;;20.60;99.90;;;;;;5010047;28;20434;-71
2022/10/28 02:19:28;;;;;;;5.20;4.70;;;20.60;99.90;;;;;;4992799;28;20422;-72
2022/10/28 02:22:09;;;;;;;5.33;4.83;;;20.60;99.90;;;;;;5005000;28;20440;-71
2022/10/28 02:24:54;;;;;;;9.37;4.97;;;20.60;99.90;;;;;;5009430;28;20961;-72
2022/10/28 02:27:38;;;;;;;9.80;6.03;;;20.70;99.90;;;;;;5009184;28;20882;-71
2022/10/28 02:30:08;;;;;;;8.97;6.00;;;20.70;99.90;;;;;;5010539;28;20921;-71
2022/10/28 02:32:56;;;;;;;5.70;4.50;;;20.60;99.70;;;;;;5010022;28;20493;-72
2022/10/28 02:35:53;;;;;;;8.40;5.00;;;20.60;99.40;;;;;;5011420;28;20457;-71
2022/10/28 02:38:27;;;;;;;11.63;5.20;;;20.50;99.50;;;;;;4996813;28;20495;-71
2022/10/28 02:41:01;;;;;;;8.67;4.93;;;20.60;99.90;;;;;;5010636;28;20452;-72
2022/10/28 02:43:29;;;;;;;5.57;5.00;;;20.60;99.90;;;;;;5010044;28;20501;-72
2022/10/28 02:45:58;;;;;;;7.10;5.67;;;20.70;99.50;;;;;;4999280;28;20503;-71
2022/10/28 02:48:43;;;;;;;6.17;5.07;;;20.70;99.30;;;;;;5001415;28;20520;-71
2022/10/28 02:51:22;;;;;;;8.40;5.33;;;20.70;99.20;;;;;;5008360;28;20468;-71
2022/10/28 02:54:01;;;;;;;7.50;5.10;;;20.70;99.30;;;;;;5009712;28;20469;-71
2022/10/28 02:56:30;;;;;;;5.03;4.53;;;20.70;98.90;;;;;;5010778;28;20438;-71
2022/10/28 02:58:56;;;;;;;11.77;5.20;;;20.70;99.10;;;;;;5024045;28;20434;-71
2022/10/28 03:01:24;;;;;;;13.60;5.30;;;20.70;99.10;;;;;;5010945;28;20438;-71
2022/10/28 03:03:50;;;;;;;9.50;5.17;;;20.70;99.30;;;;;;5010129;28;20284;-71
2022/10/28 03:06:15;;;;;;;6.40;5.80;;;20.80;99.50;;;;;;5025331;28;20517;-71
2022/10/28 03:08:41;;;;;;;6.43;5.43;;;20.90;99.90;;;;;;5010033;28;20187;-71
2022/10/28 03:11:07;;;;;;;11.60;4.70;;;20.90;99.90;;;;;;5005345;28;20183;-71
2022/10/28 03:13:32;;;;;;;11.10;5.57;;;20.90;99.90;;;;;;5005152;28;20184;-72
2022/10/28 03:15:58;;;;;;;10.90;5.73;;;21.00;99.90;;;;;;5007741;28;20175;-72
2022/10/28 03:18:24;;;;;;;6.70;6.10;;;21.00;99.90;;;;;;5009604;28;20520;-71
2022/10/28 03:20:49;;;;;;;13.43;6.77;;;21.00;99.90;;;;;;5010218;28;20191;-71
2022/10/28 03:23:15;;;;;;;7.53;6.83;;;21.00;99.90;;;;;;5009242;28;20290;-71
2022/10/28 03:25:41;;;;;;;10.23;5.90;;;20.90;99.90;;;;;;5009072;28;20194;-71
2022/10/28 03:28:06;;;;;;;6.23;5.63;;;20.90;99.90;;;;;;5010175;28;20187;-72
2022/10/28 03:30:32;;;;;;;8.07;5.73;;;20.90;99.90;;;;;;5010743;28;20183;-71
2022/10/28 03:33:00;;;;;;;11.80;6.00;;;20.80;99.90;;;;;;5000919;28;20208;-73
2022/10/28 03:35:26;;;;;;;9.23;5.53;;;20.70;99.90;;;;;;5006906;28;20175;-72
2022/10/28 03:37:51;;;;;;;13.00;5.17;;;20.70;99.90;;;;;;5008961;28;20426;-72
2022/10/28 03:40:17;;;;;;;7.10;5.27;;;20.60;99.90;;;;;;5007715;28;20249;-72
2022/10/28 03:42:43;;;;;;;6.93;5.57;;;20.50;99.90;;;;;;4998112;28;20191;-73
2022/10/28 03:45:09;;;;;;;8.23;7.47;;;20.40;99.90;;;;;;5009681;28;20635;-72
2022/10/28 03:47:35;;;;;;;7.63;5.40;;;20.30;99.90;;;;;;4973833;28;20441;-72
2022/10/28 03:50:01;;;;;;;10.83;6.50;;;20.30;99.90;;;;;;5008261;28;20427;-72
2022/10/28 03:52:27;;;;;;;6.47;5.37;;;20.30;99.90;;;;;;5003454;28;20429;-72
2022/10/28 03:54:53;;;;;;;8.70;5.50;;;20.40;99.90;;;;;;5001426;28;20233;-73
2022/10/28 03:57:18;;;;;;;8.97;5.60;;;20.40;99.90;;;;;;5001669;28;20433;-73
2022/10/28 03:59:44;;;;;;;6.37;5.17;;;20.40;99.90;;;;;;5010430;28;20186;-73
2022/10/28 04:02:10;;;;;;;8.10;7.27;;;20.40;99.90;;;;;;5013926;28;20631;-73
2022/10/28 04:04:35;;;;;;;6.87;6.17;;;20.40;99.90;;;;;;5013422;28;20281;-73
2022/10/28 04:07:01;;;;;;;6.40;5.80;;;20.40;99.90;;;;;;5025416;28;20187;-73
2022/10/28 04:09:27;;;;;;;6.30;5.70;;;20.30;99.90;;;;;;5009199;28;20647;-72
2022/10/28 04:11:52;;;;;;;7.83;6.00;;;20.30;99.90;;;;;;5011511;28;20318;-73
2022/10/28 04:14:18;;;;;;;10.80;6.20;;;20.30;99.90;;;;;;5009367;28;20179;-73
2022/10/28 04:16:44;;;;;;;12.10;7.23;;;20.30;99.90;;;;;;5010210;28;20292;-73
2022/10/28 04:19:09;;;;;;;7.93;7.33;;;20.30;99.90;;;;;;5024234;28;20197;-73
2022/10/28 04:21:35;;;;;;;11.43;5.83;;;20.40;99.90;;;;;;5013636;28;20230;-72
2022/10/28 04:24:00;;;;;;;11.27;7.10;;;20.30;99.90;;;;;;5012082;28;20474;-72
2022/10/28 04:26:26;;;;;;;8.73;7.33;;;20.30;99.90;;;;;;4995123;28;20278;-72
2022/10/28 04:28:52;;;;;;;6.30;4.53;;;20.40;99.90;;;;;;5011527;28;20183;-72
2022/10/28 04:31:17;;;;;;;8.50;7.63;;;20.40;99.90;;;;;;5008890;28;20238;-72
2022/10/28 04:33:43;;;;;;;8.10;7.03;;;20.40;99.90;;;;;;5012247;28;20187;-73
2022/10/28 04:36:09;;;;;;;9.97;5.77;;;20.30;99.90;;;;;;5005869;28;20202;-72
2022/10/28 04:38:34;;;;;;;7.10;5.97;;;20.20;99.90;;;;;;5008085;28;20615;-72
2022/10/28 04:41:00;;;;;;;9.20;8.20;;;20.30;99.90;;;;;;5011830;28;20221;-72
2022/10/28 04:43:26;;;;;;;10.60;6.43;;;20.30;99.90;;;;;;5008574;28;20672;-71
2022/10/28 04:45:51;;;;;;;7.37;5.53;;;20.20;99.90;;;;;;5021472;28;20206;-70
2022/10/28 04:48:17;;;;;;;5.67;5.07;;;20.20;99.90;;;;;;5010290;28;20191;-71
2022/10/28 04:50:43;;;;;;;10.17;8.30;;;20.20;99.90;;;;;;5012509;28;20198;-71
2022/10/28 04:53:09;;;;;;;9.73;5.90;;;20.20;99.90;;;;;;5008727;28;20275;-70
2022/10/28 04:55:35;;;;;;;9.80;7.47;;;20.30;99.90;;;;;;5013694;28;20187;-71
2022/10/28 04:58:00;;;;;;;8.07;6.17;;;20.30;99.90;;;;;;5011663;28;20441;-71
2022/10/28 05:00:28;;;;;;;8.20;5.50;;;20.30;99.90;;;;;;5012469;28;20274;-71
2022/10/28 05:02:54;;;;;;;13.03;7.40;;;20.40;99.90;;;;;;5010073;28;20449;-71
2022/10/28 05:05:20;;;;;;;15.13;8.60;;;20.30;99.90;;;;;;5013570;28;20505;-71
2022/10/28 05:07:46;;;;;;;9.10;7.00;;;20.30;99.90;;;;;;5010620;28;20183;-71
2022/10/28 05:10:14;;;;;;;10.67;9.50;;;20.30;99.90;;;;;;5011875;28;20457;-71
2022/10/28 05:12:44;;;;;;;6.87;5.47;;;20.30;99.90;;;;;;5009834;28;20209;-71
2022/10/28 05:15:11;;;;;;;8.97;6.63;;;20.20;99.90;;;;;;5006775;28;20426;-71
2022/10/28 05:17:42;;;;;;;9.63;6.93;;;20.20;99.90;;;;;;5006621;28;20473;-71
2022/10/28 05:20:10;;;;;;;11.83;9.17;;;20.20;99.90;;;;;;5024861;28;20461;-71
2022/10/28 05:22:36;;;;;;;8.70;7.20;;;20.20;99.90;;;;;;5009635;28;20441;-71
2022/10/28 05:25:03;;;;;;;8.80;7.10;;;20.20;99.90;;;;;;5010155;28;20926;-71
2022/10/28 05:27:29;;;;;;;10.97;5.70;;;20.30;99.90;;;;;;5010601;28;20433;-70
2022/10/28 05:29:55;;;;;;;9.23;5.90;;;20.20;99.90;;;;;;5007701;28;20454;-70
2022/10/28 05:32:20;;;;;;;9.27;8.40;;;20.20;99.90;;;;;;5009757;28;20215;-70
2022/10/28 05:34:46;;;;;;;14.00;6.77;;;20.20;99.90;;;;;;5010427;28;20191;-72
2022/10/28 05:37:12;;;;;;;6.53;5.70;;;20.20;99.90;;;;;;5011598;28;20262;-70
2022/10/28 05:39:37;;;;;;;9.60;5.73;;;20.20;99.90;;;;;;5006864;28;20636;-71
2022/10/28 05:42:03;;;;;;;8.27;5.33;;;20.20;99.90;;;;;;5003340;28;20182;-72
2022/10/28 05:44:29;;;;;;;7.27;6.20;;;20.20;99.90;;;;;;5011146;28;20260;-71
2022/10/28 05:46:55;;;;;;;10.33;7.20;;;20.20;99.90;;;;;;5007856;28;20189;-71
2022/10/28 05:49:21;;;;;;;8.50;5.40;;;20.20;99.90;;;;;;5011262;28;20241;-71
2022/10/28 05:51:47;;;;;;;9.00;8.10;;;20.30;99.90;;;;;;5009080;28;21120;-72
2022/10/28 05:54:12;;;;;;;10.80;6.93;;;20.30;99.90;;;;;;5012291;28;20438;-69
2022/10/28 05:56:38;;;;;;;7.03;5.90;;;20.30;99.90;;;;;;5013066;28;20175;-69
2022/10/28 05:59:04;;;;;;;8.77;5.93;;;20.30;99.90;;;;;;4998001;28;20187;-71
2022/10/28 06:01:30;;;;;;;11.43;6.80;;;20.30;99.90;;;;;;5008362;28;20182;-71
2022/10/28 06:03:55;;;;;;;9.40;6.97;;;20.20;99.90;;;;;;5008422;28;20717;-71
2022/10/28 06:06:21;;;;;;;12.23;6.20;;;20.20;99.90;;;;;;5010878;28;20635;-71
2022/10/28 06:08:47;;;;;;;6.80;5.53;;;20.20;99.90;;;;;;5009984;28;20191;-73
2022/10/28 06:11:12;;;;;;;9.70;6.17;;;20.10;99.90;;;;;;5010169;28;20191;-71
2022/10/28 06:13:38;;;;;;;7.10;5.80;;;20.00;99.90;;;;;;5007212;28;20267;-71
2022/10/28 06:16:04;;;;;;;9.63;5.67;;;20.00;99.90;;;;;;5011017;28;20191;-71
2022/10/28 06:18:30;;;;;;;7.23;5.67;;;19.90;99.90;;;;;;5011931;28;20635;-71
2022/10/28 06:20:57;;;;;;;8.40;6.30;;;19.80;99.90;;;;;;5008571;28;20521;-71
2022/10/28 06:23:25;;;;;;;14.50;7.70;;;19.80;99.90;;;;;;5005916;28;20317;-71
2022/10/28 06:25:56;;;;;;;10.63;5.80;;;19.70;99.90;;;;;;5005593;28;20777;-72
2022/10/28 06:28:21;;;;;;;18.47;8.30;;;19.70;99.90;;;;;;5012976;28;20394;-70
2022/10/28 06:30:47;;;;;;;12.07;7.87;;;19.60;99.90;;;;;;5007400;28;20485;-73
2022/10/28 06:33:13;;;;;;;13.57;7.43;;;19.60;99.90;;;;;;5007772;28;20556;-69
2022/10/28 06:35:38;;;;;;;8.03;6.30;;;19.60;99.90;;;;;;5011134;28;20265;-70
2022/10/28 06:38:04;;;;;;;9.90;6.70;;;19.70;99.90;;;;;;5009352;28;20189;-70
2022/10/28 06:40:30;;;;;;;12.37;8.47;;;19.70;99.90;;;;;;5010081;28;20187;-71
2022/10/28 06:43:04;;;;;;;18.57;7.27;;;19.70;99.90;;;;;;5005871;28;20238;-70
2022/10/28 06:45:32;;;;;;;19.83;13.30;;;19.70;99.90;;;;;;5009642;28;20175;-70
2022/10/28 06:48:00;;;;;;;14.93;9.30;;;19.70;99.90;;;;;;5011514;28;20467;-70
2022/10/28 06:50:27;;;;;;;16.33;7.27;;;19.60;99.90;;;;;;5011704;28;20410;-70
2022/10/28 06:52:55;;;;;;;8.27;7.00;;;19.70;99.90;;;;;;5003688;28;20441;-70
2022/10/28 06:55:22;;;;;;;8.00;6.60;;;19.60;99.90;;;;;;4994447;28;20879;-70
2022/10/28 06:57:47;;;;;;;9.27;6.90;;;19.70;99.90;;;;;;5003443;28;20438;-69
2022/10/28 07:00:14;;;;;;;6.97;6.00;;;19.70;99.90;;;;;;5008697;28;20532;-70
2022/10/28 07:02:39;;;;;;;12.53;6.70;;;19.70;99.90;;;;;;5003971;28;20183;-70
2022/10/28 07:05:06;;;;;;;8.83;7.17;;;19.70;99.90;;;;;;4991897;28;20454;-70
2022/10/28 07:07:31;;;;;;;13.40;7.07;;;19.80;99.90;;;;;;5000538;28;20187;-70
2022/10/28 07:09:57;;;;;;;12.83;7.00;;;19.80;99.90;;;;;;5009717;28;20433;-70
2022/10/28 07:12:23;;;;;;;10.57;7.47;;;19.90;99.90;;;;;;5004545;28;20248;-70
2022/10/28 07:14:48;;;;;;;8.70;6.77;;;19.90;99.90;;;;;;5023489;28;20195;-70
2022/10/28 07:17:14;;;;;;;9.20;6.10;;;19.90;99.90;;;;;;5011027;28;20191;-70
2022/10/28 07:19:40;;;;;;;8.67;5.93;;;19.80;99.90;;;;;;5009376;28;20645;-71
2022/10/28 07:22:05;;;;;;;8.77;7.10;;;19.80;99.90;;;;;;4990926;28;20635;-70
2022/10/28 07:24:31;;;;;;;7.27;6.60;;;19.80;99.90;;;;;;5013055;28;20203;-70
2022/10/28 07:26:57;;;;;;;10.13;6.30;;;19.80;99.90;;;;;;5011827;28;20609;-70
2022/10/28 07:29:22;;;;;;;7.10;6.30;;;19.80;99.90;;;;;;5012381;28;20324;-70
2022/10/28 07:31:48;;;;;;;8.87;7.97;;;19.80;99.90;;;;;;5006528;28;20306;-69
2022/10/28 07:34:14;;;;;;;8.60;6.30;;;20.00;99.90;;;;;;5011968;28;20191;-71
2022/10/28 07:36:40;;;;;;;8.93;7.70;;;20.10;99.90;;;;;;5011663;28;20191;-69
2022/10/28 07:39:06;;;;;;;8.00;5.60;;;20.20;99.90;;;;;;5014652;28;20451;-69
2022/10/28 07:41:31;;;;;;;6.33;5.67;;;20.20;99.90;;;;;;5015701;28;20233;-69
2022/10/28 07:43:57;;;;;;;7.40;5.70;;;20.30;99.90;;;;;;5013351;28;20658;-69
2022/10/28 07:46:23;;;;;;;14.23;7.17;;;20.20;99.90;;;;;;5015132;28;20592;-69
2022/10/28 07:48:48;;;;;;;10.10;7.07;;;20.30;99.90;;;;;;5010280;28;20195;-68
2022/10/28 07:51:15;;;;;;;8.23;6.03;;;20.40;99.90;;;;;;5014448;28;20246;-68
2022/10/28 07:53:41;;;;;;;6.70;6.00;;;20.50;99.90;;;;;;5012112;28;20187;-68
2022/10/28 07:56:13;;;;;;;8.20;6.10;;;20.60;99.90;;;;;;5014061;28;20426;-69
2022/10/28 07:58:40;;;;;;;13.43;6.07;;;20.60;99.90;;;;;;5013647;28;20922;-69
2022/10/28 08:01:07;;;;;;;8.23;6.27;;;20.70;99.90;;;;;;5014383;28;20460;-70
2022/10/28 08:03:33;;;;;;;19.53;6.40;;;20.60;99.90;;;;;;5013913;28;20469;-71
2022/10/28 08:06:11;;;;;;;7.13;6.03;;;20.60;99.90;;;;;;5010317;28;20476;-71
2022/10/28 08:08:37;;;;;;;9.57;5.30;;;20.60;99.90;;;;;;5014621;28;20783;-71
2022/10/28 08:11:15;;;;;;;7.47;6.77;;;20.60;99.90;;;;;;5012791;28;20425;-69
2022/10/28 08:13:42;;;;;;;10.30;6.37;;;20.70;99.90;;;;;;5014109;28;20472;-70
2022/10/28 08:16:08;;;;;;;13.10;7.40;;;20.70;99.90;;;;;;5013985;28;20500;-69
2022/10/28 08:18:37;;;;;;;10.17;5.93;;;20.80;99.90;;;;;;5012674;28;20461;-69
2022/10/28 08:21:05;;;;;;;9.20;5.73;;;20.80;99.90;;;;;;5014269;28;20422;-69
2022/10/28 08:23:30;;;;;;;9.10;6.10;;;20.70;99.90;;;;;;5011821;28;20457;-69
2022/10/28 08:25:57;;;;;;;11.50;5.70;;;20.80;99.90;;;;;;5012810;28;21008;-69
2022/10/28 08:28:23;;;;;;;8.60;6.00;;;20.80;99.90;;;;;;5013264;28;20241;-69
2022/10/28 08:30:49;;;;;;;11.53;7.10;;;20.80;99.90;;;;;;5013241;28;20425;-69
2022/10/28 08:33:15;;;;;;;8.20;5.90;;;21.00;99.90;;;;;;5013781;28;20418;-69
2022/10/28 08:35:41;;;;;;;8.23;6.03;;;21.00;99.90;;;;;;5013637;28;20453;-69
2022/10/28 08:38:07;;;;;;;8.17;6.70;;;21.00;99.90;;;;;;5013916;28;20493;-69
2022/10/28 08:40:49;;;;;;;8.93;5.30;;;21.10;99.90;;;;;;5011775;28;20449;-69
2022/10/28 08:43:47;;;;;;;12.53;8.87;;;21.30;99.90;;;;;;5013808;28;20468;-69
2022/10/28 08:46:46;;;;;;;7.80;6.50;;;21.40;99.90;;;;;;4993459;28;20430;-69
2022/10/28 08:49:15;;;;;;;6.10;5.50;;;21.60;99.90;;;;;;4998278;28;20430;-69
2022/10/28 08:51:50;;;;;;;7.83;7.13;;;21.70;99.90;;;;;;5011963;28;20426;-69
2022/10/28 08:54:23;;;;;;;11.57;6.20;;;21.80;99.90;;;;;;5010519;28;20447;-69
2022/10/28 08:56:50;;;;;;;8.50;6.27;;;21.90;99.70;;;;;;5012888;28;20492;-69
2022/10/28 08:59:26;;;;;;;9.33;6.53;;;21.90;98.90;;;;;;4993600;28;20434;-69
2022/10/28 09:01:58;;;;;;;8.80;6.73;;;22.00;98.40;;;;;;4992828;28;20440;-69
2022/10/28 09:04:44;;;;;;;10.83;5.83;;;22.00;98.70;;;;;;4997745;28;20503;-69
2022/10/28 09:07:19;;;;;;;10.27;7.80;;;22.10;99.20;;;;;;5003466;28;20952;-69
2022/10/28 09:09:49;;;;;;;9.63;5.80;;;22.20;99.40;;;;;;5010871;28;20437;-69
2022/10/28 09:12:37;;;;;;;7.33;5.30;;;22.30;99.00;;;;;;5011721;28;20437;-69
2022/10/28 09:15:27;;;;;;;8.07;7.20;;;22.40;98.80;;;;;;5013048;28;20402;-72
2022/10/28 09:17:58;;;;;;;8.80;7.20;;;22.50;98.30;;;;;;5012699;28;20457;-69
2022/10/28 09:20:27;;;;;;;9.50;6.30;;;22.70;98.50;;;;;;5013170;28;20410;-69
2022/10/28 09:22:56;;;;;;;11.00;6.60;;;22.80;97.90;;;;;;5013544;28;20418;-69
2022/10/28 09:25:58;;;;;;;10.00;6.30;;;23.00;98.30;;;;;;5012898;28;20441;-69
2022/10/28 09:28:29;;;;;;;8.37;6.50;;;23.30;97.90;;;;;;5011653;28;20461;-69
2022/10/28 09:31:18;;;;;;;8.60;6.37;;;23.50;97.20;;;;;;5012900;28;20498;-69
2022/10/28 09:33:56;;;;;;;8.23;6.63;;;23.80;97.50;;;;;;5013449;28;20500;-69
2022/10/28 09:36:39;;;;;;;9.40;7.40;;;24.00;96.80;;;;;;5012487;28;20405;-69
2022/10/28 09:39:09;;;;;;;14.53;6.97;;;24.20;96.00;;;;;;5003928;28;20430;-69
2022/10/28 09:41:40;;;;;;;11.80;8.53;;;24.30;95.30;;;;;;5013341;28;20417;-69
2022/10/28 09:44:40;;;;;;;11.40;6.57;;;24.50;94.00;;;;;;5010835;28;20477;-69
2022/10/28 09:47:21;;;;;;;10.93;6.80;;;24.70;94.20;;;;;;5026418;28;20414;-69
2022/10/28 09:49:48;;;;;;;9.13;7.10;;;24.80;93.60;;;;;;5012868;28;20433;-69
2022/10/28 09:52:22;;;;;;;10.30;6.93;;;24.90;93.90;;;;;;5010641;28;20434;-69
2022/10/28 09:54:51;;;;;;;7.07;6.00;;;24.90;93.30;;;;;;5012876;28;20406;-69
2022/10/28 09:57:17;;;;;;;10.60;6.40;;;25.00;92.50;;;;;;5011084;28;20981;-69
2022/10/28 09:59:43;;;;;;;7.83;6.63;;;25.20;92.80;;;;;;5012285;28;20418;-69
2022/10/28 10:02:37;;;;;;;8.70;5.80;;;25.50;92.40;;;;;;5011787;28;20418;-69
2022/10/28 10:05:09;;;;;;;10.80;7.80;;;25.80;90.90;;;;;;5010009;28;20524;-69
2022/10/28 10:07:44;;;;;;;8.30;6.90;;;26.00;91.10;;;;;;5012659;28;20497;-69
2022/10/28 10:10:21;;;;;;;7.60;6.03;;;26.30;90.20;;;;;;5012275;28;20400;-69
2022/10/28 10:12:49;;;;;;;10.80;6.73;;;26.20;87.10;;;;;;5010528;28;20941;-70
2022/10/28 10:15:32;;;;;;;9.73;5.30;;;26.30;85.60;;;;;;5010760;28;20924;-69
2022/10/28 10:18:01;;;;;;;8.13;5.27;;;26.60;85.50;;;;;;5011352;28;20480;-69
2022/10/28 10:20:27;;;;;;;7.63;6.43;;;26.80;83.10;;;;;;5008468;28;20421;-70
2022/10/28 10:22:52;;;;;;;11.77;6.37;;;27.00;84.90;;;;;;5026693;28;20437;-70
2022/10/28 10:25:18;;;;;;;6.40;5.80;;;27.20;82.00;;;;;;5010864;28;20426;-69
2022/10/28 10:28:14;;;;;;;11.80;5.63;;;27.30;82.80;;;;;;5010871;28;20624;-70
2022/10/28 10:30:55;;;;;;;9.80;6.40;;;27.30;80.70;;;;;;5009925;28;20199;-69
2022/10/28 10:33:29;;;;;;;10.20;5.23;;;27.10;81.20;;;;;;5026575;28;20462;-69
2022/10/28 10:35:59;;;;;;;6.30;5.57;;;27.00;79.30;;;;;;5012606;28;20401;-69
2022/10/28 10:38:26;;;;;;;9.20;5.40;;;26.80;81.50;;;;;;5011528;28;20975;-69
2022/10/28 10:40:52;;;;;;;12.50;8.40;;;26.70;79.40;;;;;;5012441;28;20394;-69
2022/10/28 10:43:22;;;;;;;13.23;6.60;;;26.60;78.90;;;;;;5011569;28;20481;-70
2022/10/28 10:45:59;;;;;;;10.43;5.50;;;26.50;79.90;;;;;;5012010;28;20417;-70
2022/10/28 10:48:25;;;;;;;9.60;8.60;;;26.50;80.40;;;;;;5010621;28;20433;-70
2022/10/28 10:50:51;;;;;;;7.17;6.47;;;26.30;80.40;;;;;;5011508;28;20441;-70
2022/10/28 10:53:24;;;;;;;8.40;5.20;;;26.30;81.70;;;;;;5011431;28;20410;-68
2022/10/28 10:56:10;;;;;;;8.63;5.10;;;26.30;80.70;;;;;;5011050;28;20402;-70
2022/10/28 10:58:45;;;;;;;6.57;5.47;;;26.20;81.20;;;;;;4979640;28;20444;-71
2022/10/28 11:01:18;;;;;;;7.90;5.20;;;26.20;82.10;;;;;;5015382;28;20451;-69
2022/10/28 11:03:48;;;;;;;9.57;6.23;;;26.20;81.80;;;;;;5014107;28;20504;-69
2022/10/28 11:06:27;;;;;;;6.80;4.50;;;26.20;81.20;;;;;;5015352;28;20425;-69
2022/10/28 11:09:02;;;;;;;13.53;6.80;;;26.10;82.00;;;;;;5016060;28;20416;-70
2022/10/28 11:11:38;;;;;;;10.37;6.00;;;26.00;81.30;;;;;;5014212;28;20406;-70
2022/10/28 11:14:29;;;;;;;7.80;5.43;;;25.90;81.40;;;;;;5015741;28;20547;-70
2022/10/28 11:16:57;;;;;;;7.50;6.60;;;25.90;81.30;;;;;;4998424;28;20413;-70
2022/10/28 11:19:31;;;;;;;9.67;6.47;;;25.80;82.40;;;;;;5014070;28;20430;-70
2022/10/28 11:22:08;;;;;;;10.30;5.60;;;25.80;81.60;;;;;;5015785;28;20398;-70
2022/10/28 11:24:54;;;;;;;7.53;6.47;;;25.90;83.10;;;;;;5015881;28;20606;-70
2022/10/28 11:27:52;;;;;;;8.37;5.93;;;26.00;83.60;;;;;;5011587;28;20425;-71
2022/10/28 11:30:25;;;;;;;7.70;6.27;;;26.10;81.20;;;;;;5007517;28;20448;-70
2022/10/28 11:33:08;;;;;;;11.80;6.10;;;26.20;81.00;;;;;;5014936;28;20476;-70
2022/10/28 11:35:55;;;;;;;10.77;5.70;;;26.20;80.00;;;;;;5016055;28;20416;-70
2022/10/28 11:38:39;;;;;;;10.07;5.80;;;26.10;80.40;;;;;;5015140;28;20425;-70
2022/10/28 11:41:11;;;;;;;9.63;6.27;;;26.00;80.10;;;;;;5015360;28;20878;-69
2022/10/28 11:43:49;;;;;;;8.07;5.40;;;25.80;81.00;;;;;;5013610;28;20465;-69
2022/10/28 11:46:17;;;;;;;9.20;6.10;;;25.60;82.10;;;;;;5013906;28;20442;-69
2022/10/28 11:48:59;;;;;;;10.10;4.90;;;25.40;83.00;;;;;;5015408;28;20412;-69
2022/10/28 11:51:40;;;;;;;10.33;5.17;;;25.50;85.60;;;;;;5014639;28;20412;-69
2022/10/28 11:54:20;;;;;;;22.37;7.37;;;25.50;84.00;;;;;;5014004;28;20933;-70
2022/10/28 11:57:02;;;;;;;8.47;7.57;;;25.50;83.90;;;;;;5013940;28;20426;-69
2022/10/28 11:59:49;;;;;;;8.27;5.67;;;25.50;84.80;;;;;;5014185;28;20696;-69
2022/10/28 12:02:21;;;;;;;10.43;5.50;;;25.30;82.80;;;;;;5013404;28;20438;-69
2022/10/28 12:05:13;;;;;;;6.50;4.80;;;25.30;86.00;;;;;;5013891;28;20477;-69
2022/10/28 12:07:52;;;;;;;7.17;5.40;;;25.40;84.60;;;;;;5004085;28;20444;-69
2022/10/28 12:10:40;;;;;;;9.03;6.20;;;25.40;84.70;;;;;;4990131;28;20945;-70
2022/10/28 12:13:14;;;;;;;11.13;6.93;;;25.40;83.30;;;;;;5014941;28;20418;-69
2022/10/28 12:15:50;;;;;;;5.63;4.37;;;25.40;84.40;;;;;;5015263;28;20426;-69
2022/10/28 12:18:37;;;;;;;7.60;5.23;;;25.40;83.40;;;;;;5014126;28;20426;-69
2022/10/28 12:21:22;;;;;;;7.70;5.27;;;25.40;83.60;;;;;;5009667;28;20632;-69
2022/10/28 12:23:48;;;;;;;7.90;5.70;;;25.30;83.40;;;;;;5006726;28;20462;-71
2022/10/28 12:26:16;;;;;;;10.23;5.00;;;25.30;83.60;;;;;;5007663;28;20430;-70
2022/10/28 12:28:50;;;;;;;8.83;4.87;;;25.30;83.60;;;;;;5014679;28;20413;-69
2022/10/28 12:31:24;;;;;;;8.17;5.30;;;25.30;82.80;;;;;;5010271;28;20476;-71
2022/10/28 12:33:54;;;;;;;10.17;5.00;;;25.20;81.60;;;;;;5013354;28;20794;-73
2022/10/28 12:36:31;;;;;;;9.20;7.60;;;25.20;85.00;;;;;;5001272;28;20444;-74
2022/10/28 12:39:04;;;;;;;13.27;7.43;;;25.30;83.70;;;;;;5000866;28;20430;-74
2022/10/28 12:42:00;;;;;;;7.43;5.50;;;25.30;83.00;;;;;;5011309;28;20976;-74
2022/10/28 12:44:28;;;;;;;9.50;5.43;;;25.30;81.70;;;;;;5003014;28;21008;-73
2022/10/28 12:47:29;;;;;;;7.00;5.10;;;25.30;82.30;;;;;;5013335;28;20434;-74
2022/10/28 12:50:09;;;;;;;10.80;5.70;;;25.30;82.90;;;;;;4989012;28;20474;-74
2022/10/28 12:52:53;;;;;;;9.03;5.47;;;25.30;83.10;;;;;;5009680;28;20421;-74
2022/10/28 12:55:50;;;;;;;7.83;4.77;;;25.30;83.10;;;;;;5008044;28;20484;-73
2022/10/28 12:58:26;;;;;;;8.70;5.90;;;25.20;83.50;;;;;;5012301;28;20406;-74
2022/10/28 13:01:00;;;;;;;8.90;7.17;;;25.30;84.00;;;;;;5005271;28;20430;-74
2022/10/28 13:03:26;;;;;;;8.10;4.63;;;25.20;83.50;;;;;;5010952;28;20461;-74
2022/10/28 13:06:00;;;;;;;9.80;4.60;;;25.20;82.70;;;;;;5013765;28;20428;-73
2022/10/28 13:08:32;;;;;;;8.70;5.80;;;25.20;82.30;;;;;;4985474;28;20215;-74